Humidity-temperature Sensor

Selected Measurement Type: Air Temperature

 
Air Temperature [°C]     6 entries per hour
Showing data from 4/11/2018 (00:00:00 Z) to 4/4/2018 (00:01:00 Z)
Previous Next [ Day | 3-Days | 7-Days ]
First Last
Prev [ Day | 3-Days | 7-Days ] Next
First Last

Start Time:     :
End Time:     :     
Time (in GMT) :00 :50 :40 :30 :20 :10
Previous Next [ Day | 3-Days | 7-Days ]
First Last
Prev [ Day | 3-Days | 7-Days ] Next
First Last


123 => good data
MM => data is determined as missing
-- => data not received/configured
Back to Top Back to Top
4/11/2018 00:00 to 23:10 26.20 26.34 26.36 26.26 26.19 26.30
4/10/2018 23:00 to 22:10 26.45 26.30 26.27 26.44 26.20 26.29
4/10/2018 22:00 to 21:10 26.13 26.29 26.36 26.24 26.28 26.25
4/10/2018 21:00 to 20:10 26.27 26.21 26.29 26.34 26.36 26.24
4/10/2018 20:00 to 19:10 26.36 26.18 26.24 26.25 26.28 26.28
4/10/2018 19:00 to 18:10 26.16 26.19 26.21 26.17 26.34 26.31
4/10/2018 18:00 to 17:10 26.22 26.39 26.30 26.18 26.38 26.33
4/10/2018 17:00 to 16:10 26.39 26.32 26.37 26.45 26.45 26.43
4/10/2018 16:00 to 15:10 26.45 26.48 26.37 26.48 26.42 26.39
4/10/2018 15:00 to 14:10 26.61 26.44 26.57 26.43 26.23 26.21
4/10/2018 14:00 to 13:10 26.18 26.23 26.16 26.07 25.99 26.18
4/10/2018 13:00 to 12:10 26.05 26.18 26.14 26.04 26.10 26.02
4/10/2018 12:00 to 11:10 26.05 26.05 26.11 26.07 26.06 26.02
4/10/2018 11:00 to 10:10 26.09 26.06 26.01 26.07 26.09 25.98
4/10/2018 10:00 to 9:10 26.05 25.99 26.06 26.21 26.08 26.14
4/10/2018 09:00 to 8:10 26.12 26.06 26.14 26.08 26.13 26.15
4/10/2018 08:00 to 7:10 26.15 26.12 26.29 26.30 26.21 26.29
4/10/2018 07:00 to 6:10 26.24 26.29 26.37 26.27 26.28 26.33
4/10/2018 06:00 to 5:10 26.30 26.41 26.32 26.33 26.33 26.24
4/10/2018 05:00 to 4:10 26.30 26.36 26.34 26.28 26.33 26.45
4/10/2018 04:00 to 3:10 26.45 26.38 26.44 26.35 25.89 25.86
4/10/2018 03:00 to 2:10 26.35 26.47 26.45 26.40 26.32 26.36
4/10/2018 02:00 to 1:10 26.42 26.40 26.39 26.36 26.22 26.18
4/10/2018 01:00 to 0:10 26.35 26.44 26.37 26.39 26.40 26.36
4/10/2018 00:00 to 23:10 26.37 26.46 26.38 26.40 26.52 26.26
4/9/2018 23:00 to 22:10 26.39 26.39 26.42 26.39 26.50 26.39
4/9/2018 22:00 to 21:10 26.41 26.29 25.98 25.83 25.72 26.14
4/9/2018 21:00 to 20:10 26.31 26.38 26.29 26.39 26.36 26.32
4/9/2018 20:00 to 19:10 26.47 26.29 26.48 26.41 26.36 26.44
4/9/2018 19:00 to 18:10 26.50 26.31 26.22 26.22 26.30 26.39
4/9/2018 18:00 to 17:10 26.21 26.23 26.29 26.19 26.23 26.25
4/9/2018 17:00 to 16:10 26.29 26.23 26.27 26.31 26.22 26.14
4/9/2018 16:00 to 15:10 26.18 26.27 26.06 26.22 26.31 26.20
4/9/2018 15:00 to 14:10 26.38 26.17 26.29 26.23 26.12 26.25
4/9/2018 14:00 to 13:10 26.18 26.10 26.09 26.10 26.09 25.96
4/9/2018 13:00 to 12:10 25.94 25.89 25.88 26.02 25.95 25.99
4/9/2018 12:00 to 11:10 25.98 25.95 26.00 25.86 25.92 25.90
4/9/2018 11:00 to 10:10 25.93 25.82 25.83 25.81 25.96 25.88
4/9/2018 10:00 to 9:10 25.87 25.91 25.96 25.88 25.98 25.99
4/9/2018 09:00 to 8:10 25.92 25.90 25.96 25.86 25.88 25.86
4/9/2018 08:00 to 7:10 25.86 25.83 25.99 25.84 25.88 25.94
4/9/2018 07:00 to 6:10 25.89 25.99 26.07 25.97 25.96 26.01
4/9/2018 06:00 to 5:10 26.02 25.93 26.03 26.12 26.05 26.10
4/9/2018 05:00 to 4:10 26.14 26.11 26.11 25.99 26.05 26.14
4/9/2018 04:00 to 3:10 26.02 26.12 26.13 26.07 26.13 26.10
4/9/2018 03:00 to 2:10 26.16 26.11 26.14 26.13 26.13 26.12
4/9/2018 02:00 to 1:10 26.13 26.05 26.04 26.01 26.03 26.10
4/9/2018 01:00 to 0:10 26.22 26.10 26.18 26.19 26.18 26.16
4/9/2018 00:00 to 23:10 26.19 26.15 26.17 26.12 26.08 26.22
4/8/2018 23:00 to 22:10 26.19 26.16 26.13 26.02 26.07 26.14
4/8/2018 22:00 to 21:10 26.09 26.07 26.31 26.09 26.13 26.18
4/8/2018 21:00 to 20:10 26.06 26.05 26.11 26.16 26.11 26.16
4/8/2018 20:00 to 19:10 26.24 26.20 25.99 26.09 25.90 25.86
4/8/2018 19:00 to 18:10 25.84 26.00 26.08 25.99 25.86 25.83
4/8/2018 18:00 to 17:10 25.81 26.03 26.04 25.42 24.96 25.07
4/8/2018 17:00 to 16:10 25.08 24.71 25.08 25.27 25.35 25.56
4/8/2018 16:00 to 15:10 25.41 25.38 25.75 26.46 26.38 26.34
4/8/2018 15:00 to 14:10 26.20 26.30 26.28 26.17 26.16 26.18
4/8/2018 14:00 to 13:10 26.20 26.05 26.10 26.11 26.06 26.09
4/8/2018 13:00 to 12:10 26.02 26.04 26.06 26.03 26.07 26.10
4/8/2018 12:00 to 11:10 26.09 25.98 26.00 25.94 25.89 25.89
4/8/2018 11:00 to 10:10 25.95 25.97 25.90 25.97 25.80 25.85
4/8/2018 10:00 to 9:10 26.12 26.09 26.09 26.14 26.06 26.10
4/8/2018 09:00 to 8:10 26.20 26.16 26.01 26.05 26.06 25.94
4/8/2018 08:00 to 7:10 25.91 25.95 26.04 25.97 26.02 26.05
4/8/2018 07:00 to 6:10 26.01 25.95 26.16 26.24 26.32 26.22
4/8/2018 06:00 to 5:10 26.30 26.32 26.28 26.39 26.23 26.11
4/8/2018 05:00 to 4:10 26.15 26.15 26.17 26.12 26.04 26.16
4/8/2018 04:00 to 3:10 26.23 26.20 26.25 26.25 26.27 26.32
4/8/2018 03:00 to 2:10 26.31 26.38 26.38 26.30 26.45 26.28
4/8/2018 02:00 to 1:10 26.28 26.29 26.21 26.29 26.30 26.24
4/8/2018 01:00 to 0:10 26.22 26.12 26.15 26.07 26.16 26.06
4/8/2018 00:00 to 23:10 26.23 26.03 26.27 26.02 26.10 26.13
4/7/2018 23:00 to 22:10 26.32 26.31 26.49 26.57 26.60 26.47
4/7/2018 22:00 to 21:10 26.43 26.58 26.60 26.60 26.56 26.56
4/7/2018 21:00 to 20:10 26.50 26.51 26.54 26.52 26.43 26.35
4/7/2018 20:00 to 19:10 26.26 26.19 26.18 26.19 26.06 26.03
4/7/2018 19:00 to 18:10 26.18 26.36 26.32 26.37 26.19 26.25
4/7/2018 18:00 to 17:10 26.24 26.26 26.24 26.51 26.57 26.44
4/7/2018 17:00 to 16:10 26.43 26.57 26.58 26.60 26.73 26.70
4/7/2018 16:00 to 15:10 26.50 26.64 26.49 26.42 26.40 26.45
4/7/2018 15:00 to 14:10 26.47 26.51 26.46 26.41 26.40 26.36
4/7/2018 14:00 to 13:10 26.39 26.35 26.32 25.88 25.92 26.49
4/7/2018 13:00 to 12:10 26.58 26.43 26.34 26.06 26.06 26.17
4/7/2018 12:00 to 11:10 26.08 25.92 25.84 25.77 25.76 25.65
4/7/2018 11:00 to 10:10 25.67 25.83 25.77 25.79 25.84 26.03
4/7/2018 10:00 to 9:10 25.90 25.95 26.02 26.17 26.04 26.27
4/7/2018 09:00 to 8:10 26.28 26.07 26.16 26.03 26.30 26.18
4/7/2018 08:00 to 7:10 25.50 26.28 26.23 26.33 26.25 26.27
4/7/2018 07:00 to 6:10 26.33 26.40 26.36 26.46 26.44 26.47
4/7/2018 06:00 to 5:10 26.36 26.52 26.63 26.65 26.52 26.48
4/7/2018 05:00 to 4:10 26.62 26.60 26.46 26.39 26.40 26.67
4/7/2018 04:00 to 3:10 26.68 26.50 26.57 26.66 26.79 26.82
4/7/2018 03:00 to 2:10 26.84 26.76 26.75 26.69 26.70 26.82
4/7/2018 02:00 to 1:10 26.74 26.74 26.67 26.73 26.65 26.63
4/7/2018 01:00 to 0:10 26.63 26.61 26.69 26.64 26.57 26.60
4/7/2018 00:00 to 23:10 26.57 26.68 26.56 26.55 26.61 26.78
4/6/2018 23:00 to 22:10 26.77 26.58 26.70 26.74 26.77 26.76
4/6/2018 22:00 to 21:10 26.72 26.75 26.78 26.78 26.73 26.69
4/6/2018 21:00 to 20:10 26.81 26.67 26.73 26.68 26.70 26.79
4/6/2018 20:00 to 19:10 26.64 26.58 26.54 26.71 26.80 26.72
4/6/2018 19:00 to 18:10 26.73 26.74 26.81 26.75 26.73 26.71
4/6/2018 18:00 to 17:10 26.73 26.81 26.75 26.70 26.62 26.70
4/6/2018 17:00 to 16:10 26.82 26.75 26.70 26.63 26.56 26.57
4/6/2018 16:00 to 15:10 26.58 26.55 26.56 26.56 26.55 26.51
4/6/2018 15:00 to 14:10 26.50 26.58 26.50 26.61 26.46 26.49
4/6/2018 14:00 to 13:10 26.38 26.58 26.33 26.44 26.49 26.45
4/6/2018 13:00 to 12:10 26.34 26.28 26.30 26.22 26.23 26.09
4/6/2018 12:00 to 11:10 26.11 26.06 26.18 26.21 26.18 26.24
4/6/2018 11:00 to 10:10 26.15 26.33 26.39 26.33 26.18 26.25
4/6/2018 10:00 to 9:10 26.08 26.17 26.09 26.07 26.06 26.07
4/6/2018 09:00 to 8:10 26.11 26.06 26.02 26.04 26.01 26.01
4/6/2018 08:00 to 7:10 26.17 26.10 26.11 25.88 26.14 26.17
4/6/2018 07:00 to 6:10 26.16 26.18 26.16 26.26 26.35 26.18
4/6/2018 06:00 to 5:10 26.12 26.41 26.33 26.43 26.37 26.30
4/6/2018 05:00 to 4:10 26.48 26.42 26.41 26.45 26.46 26.50
4/6/2018 04:00 to 3:10 26.41 26.49 26.43 26.48 26.40 26.03
4/6/2018 03:00 to 2:10 26.09 26.33 26.34 26.19 26.21 26.45
4/6/2018 02:00 to 1:10 26.41 26.35 26.30 26.32 26.20 26.31
4/6/2018 01:00 to 0:10 26.33 26.26 26.26 26.30 26.27 26.33
4/6/2018 00:00 to 23:10 26.35 26.28 26.32 26.27 26.18 25.99
4/5/2018 23:00 to 22:10 25.99 26.24 26.28 26.06 26.14 26.23
4/5/2018 22:00 to 21:10 26.36 26.25 26.31 26.35 26.35 26.46
4/5/2018 21:00 to 20:10 26.59 26.58 26.47 26.49 26.45 26.37
4/5/2018 20:00 to 19:10 26.14 25.68 26.08 26.31 26.40 26.38
4/5/2018 19:00 to 18:10 26.28 26.31 26.27 26.30 26.21 26.27
4/5/2018 18:00 to 17:10 26.30 26.26 26.13 26.42 26.31 26.32
4/5/2018 17:00 to 16:10 26.20 26.66 26.58 26.57 26.61 26.62
4/5/2018 16:00 to 15:10 26.51 26.46 26.28 25.32 25.87 26.13
4/5/2018 15:00 to 14:10 25.78 25.56 25.21 25.26 25.20 25.08
4/5/2018 14:00 to 13:10 24.93 24.84 24.75 24.73 24.22 24.41
4/5/2018 13:00 to 12:10 24.04 24.24 24.47 24.51 24.53 24.91
4/5/2018 12:00 to 11:10 26.27 25.92 25.92 25.65 25.51 25.43
4/5/2018 11:00 to 10:10 25.70 25.46 25.29 25.32 25.45 25.43
4/5/2018 10:00 to 9:10 25.28 25.46 25.31 25.41 25.06 24.98
4/5/2018 09:00 to 8:10 24.87 24.84 24.48 24.70 24.98 24.95
4/5/2018 08:00 to 7:10 25.55 25.68 25.58 25.73 26.09 25.89
4/5/2018 07:00 to 6:10 26.12 26.23 26.40 26.18 26.20 26.32
4/5/2018 06:00 to 5:10 26.21 26.36 26.37 26.48 26.37 26.45
4/5/2018 05:00 to 4:10 26.52 26.27 26.34 26.39 26.25 26.26
4/5/2018 04:00 to 3:10 26.30 26.32 26.21 26.36 26.05 26.08
4/5/2018 03:00 to 2:10 25.91 25.94 25.71 25.66 25.67 24.73
4/5/2018 02:00 to 1:10 24.88 25.53 25.42 25.81 25.82 25.76
4/5/2018 01:00 to 0:10 25.66 25.62 25.59 25.52 25.84 25.65
4/5/2018 00:00 to 23:10 25.75 26.01 25.88 25.82 25.99 26.13
4/4/2018 23:00 to 22:10 25.95 26.14 26.00 26.29 26.40 26.59
4/4/2018 22:00 to 21:10 26.57 26.50 26.60 26.40 26.51 26.54
4/4/2018 21:00 to 20:10 26.74 26.62 26.86 26.75 26.80 26.75
4/4/2018 20:00 to 19:10 26.89 26.83 26.82 26.75 26.85 26.87
4/4/2018 19:00 to 18:10 26.81 26.82 26.99 26.85 26.76 26.74
4/4/2018 18:00 to 17:10 26.80 26.69 26.67 26.45 26.36 26.49
4/4/2018 17:00 to 16:10 26.59 26.78 26.68 26.76 26.61 26.66
4/4/2018 16:00 to 15:10 26.57 26.72 26.71 26.84 26.83 26.74
4/4/2018 15:00 to 14:10 26.67 26.83 26.89 26.62 26.87 26.81
4/4/2018 14:00 to 13:10 26.61 26.63 26.50 26.44 26.18 26.39
4/4/2018 13:00 to 12:10 26.39 26.42 26.28 26.23 26.52 26.40
4/4/2018 12:00 to 11:10 26.38 26.44 26.41 26.47 26.49 26.45
4/4/2018 11:00 to 10:10 26.45 26.30 26.48 26.39 26.31 26.40
4/4/2018 10:00 to 9:10 26.31 26.46 26.37 26.41 26.43 26.51
4/4/2018 09:00 to 8:10 26.55 26.51 26.51 26.49 26.45 26.56
4/4/2018 08:00 to 7:10 26.64 26.44 26.46 26.47 26.50 26.57
4/4/2018 07:00 to 6:10 26.59 26.52 26.62 26.65 26.60 26.50
4/4/2018 06:00 to 5:10 26.55 26.29 26.63 26.58 26.59 26.59
4/4/2018 05:00 to 4:10 26.54 26.52 26.60 26.55 26.54 26.71
4/4/2018 04:00 to 3:10 26.51 26.63 26.54 26.62 26.62 26.58
4/4/2018 03:00 to 2:10 26.57 26.54 26.61 26.59 26.47 26.68
4/4/2018 02:00 to 1:10 26.63 26.49 26.58 26.55 26.57 26.50
4/4/2018 01:00 to 0:10 26.61 26.49 26.58 26.59 26.52 26.50